Pagrindinis puslapis
METAR-TAF:

METAR-TAF

Oro uostai :

Pekanbaru, Indonezija

platuma: 00-28N, ilguma: 101-27E, Aukštis: 31 m

Dabartinis oras

Ataskaita buvo paskelbta 2 valandos ir 21 minutes, ne 18:00 UTC
Vėjas 6 kt iš Rytų/Šiaurės Rytų
Temperatūra 26°C
Drėgmė 89%
Slėgis 1008 hPa
Matomumas: 8000 m
Mažai debesys ne aukštis 1600 ft

METAR: WIBB 221800Z 07006KT 8000 FEW016 26/24 Q1008

Laikas: 03:21 (20:21 UTC)


TAF: trūkstamas

Orai ataskaitas ir orų prognozės (METAR, TAF).

turimą stotys yra geltonos ir raudonos taškus žemėlapyje.

Perkelti pele per norėdami pamatyti stoties vardą.

Tada spustelėkite, norėdami matyti oro stebėjimo ir prognozės.

Norėdami pakeisti žemėlapį: spustelėkite ant žalios mygtukų su juodo kryžiaus žemyn,; žalią mygtuką su brūkšneliu, jei norite nutolinti; arba žalių rodyklių gretimoms žemėlapius.


METAR-TAF: